Time;durP1;ratioP1;P1;durP2;ratioP2;P2;SDS_P1;SDS_P2;PMS_P1;PMS_P2;Temp;Humidity;BMP_temperature;BMP_pressure;BME280_temperature;BME280_humidity;BME280_pressure;Samples;Min_cycle;Max_cycle;Signal;HPM_P1;HPM_P2
2023/05/10 00:02:03;;;;;;;11.20;7.40;;;;;;;9.13;70.42;101896.51;107544;1252;111771;-61
2023/05/10 00:04:35;;;;;;;9.30;6.90;;;;;;;9.12;70.48;101893.89;107527;1256;109312;-65
2023/05/10 00:07:03;;;;;;;14.10;8.50;;;;;;;9.12;70.67;101897.42;107632;1250;108682;-62
2023/05/10 00:09:32;;;;;;;14.40;8.30;;;;;;;9.12;70.86;101891.35;107536;1257;97742;-61
2023/05/10 00:12:03;;;;;;;14.30;7.50;;;;;;;9.09;70.66;101889.79;107564;1251;97736;-59
2023/05/10 00:14:33;;;;;;;12.90;6.80;;;;;;;9.07;70.72;101887.00;107530;1251;111830;-59
2023/05/10 00:17:01;;;;;;;19.90;7.50;;;;;;;9.05;70.91;101886.08;107593;1251;108876;-60
2023/05/10 00:19:30;;;;;;;14.60;7.20;;;;;;;9.03;71.06;101888.70;107381;1254;107534;-60
2023/05/10 00:21:58;;;;;;;11.30;7.50;;;;;;;9.00;70.99;101888.53;107478;1251;97806;-59
2023/05/10 00:24:27;;;;;;;14.60;8.20;;;;;;;8.97;71.16;101887.48;107384;1254;98376;-60
2023/05/10 00:26:56;;;;;;;32.50;8.10;;;;;;;8.97;71.32;101887.33;107564;1251;111836;-61
2023/05/10 00:29:28;;;;;;;19.00;7.20;;;;;;;8.97;71.61;101884.24;107570;1254;109520;-60
2023/05/10 00:31:56;;;;;;;15.20;7.40;;;;;;;8.97;71.77;101883.73;107597;1251;108545;-60
2023/05/10 00:34:25;;;;;;;11.80;7.40;;;;;;;8.96;71.90;101882.70;107624;1251;98576;-60
2023/05/10 00:36:54;;;;;;;14.00;7.20;;;;;;;8.94;71.91;101884.63;107589;1251;98492;-64
2023/05/10 00:39:23;;;;;;;11.00;7.60;;;;;;;8.93;72.06;101886.27;107605;1256;111466;-60
2023/05/10 00:41:52;;;;;;;19.30;7.70;;;;;;;8.92;72.06;101884.17;107534;1255;107928;-59
2023/05/10 00:44:20;;;;;;;13.10;7.80;;;;;;;8.92;72.07;101886.21;107611;1254;108349;-58
2023/05/10 00:46:49;;;;;;;15.70;7.20;;;;;;;8.90;72.12;101887.73;107587;1255;97807;-60
2023/05/10 00:49:20;;;;;;;17.00;7.40;;;;;;;8.90;72.32;101886.50;107596;1251;97828;-59
2023/05/10 00:51:50;;;;;;;13.00;6.70;;;;;;;8.91;72.14;101886.25;107668;1255;112217;-62
2023/05/10 00:54:19;;;;;;;15.80;8.50;;;;;;;8.90;72.31;101888.30;107542;1251;108924;-60
2023/05/10 00:56:49;;;;;;;13.90;7.50;;;;;;;8.89;72.47;101884.92;107559;1253;107739;-60
2023/05/10 00:59:21;;;;;;;20.80;8.60;;;;;;;8.87;72.39;101884.03;107405;1257;97832;-62
2023/05/10 01:01:51;;;;;;;17.30;8.30;;;;;;;8.84;72.62;101884.75;107593;1252;97880;-59
2023/05/10 01:04:25;;;;;;;12.10;6.90;;;;;;;8.81;72.50;101884.55;107547;1257;111617;-59
2023/05/10 01:06:54;;;;;;;15.50;7.80;;;;;;;8.80;72.65;101880.89;107636;1251;108947;-61
2023/05/10 01:09:24;;;;;;;14.00;9.60;;;;;;;8.78;72.79;101882.59;107568;1251;108127;-61
2023/05/10 01:11:54;;;;;;;19.60;8.60;;;;;;;8.77;72.94;101880.51;107562;1257;97835;-60
2023/05/10 01:14:24;;;;;;;19.30;7.50;;;;;;;8.75;72.73;101879.01;107606;1251;97800;-60
2023/05/10 01:16:53;;;;;;;18.40;7.90;;;;;;;8.73;72.88;101876.67;107611;1251;111719;-60
2023/05/10 01:19:24;;;;;;;18.20;8.30;;;;;;;8.71;73.14;101873.55;107633;1256;109046;-59
2023/05/10 01:22:24;;;;;;;15.50;8.40;;;;;;;8.68;73.19;101877.15;107607;1251;107950;-59
2023/05/10 01:25:29;;;;;;;18.00;8.90;;;;;;;8.66;73.47;101874.40;107602;1251;97830;-63
2023/05/10 01:28:00;;;;;;;;;;;;;;;8.66;73.62;101872.47;107554;1254;97809;-60
2023/05/10 01:30:53;;;;;;;11.00;7.00;;;;;;;8.62;73.53;101872.67;107633;1256;111475;-59
2023/05/10 01:33:28;;;;;;;10.80;7.10;;;;;;;8.58;73.45;101871.33;107557;1254;109972;-59
2023/05/10 01:36:15;;;;;;;19.40;7.00;;;;;;;8.54;73.55;101868.17;107635;1255;106641;-60
2023/05/10 01:39:20;;;;;;;20.90;7.80;;;;;;;8.48;73.78;101868.90;107564;1251;97807;-59
2023/05/10 01:41:54;;;;;;;;;;;;;;;8.41;73.98;101863.73;107328;1257;97924;-59
2023/05/10 01:44:53;;;;;;;20.20;7.60;;;;;;;8.37;74.41;101861.85;107499;1254;111558;-64
2023/05/10 01:47:35;;;;;;;23.20;9.10;;;;;;;8.36;74.44;101862.81;107552;1257;109307;-65
2023/05/10 01:50:10;;;;;;;15.80;7.20;;;;;;;8.36;74.49;101855.34;107543;1254;107643;-65
2023/05/10 01:52:43;;;;;;;20.90;7.90;;;;;;;8.35;74.46;101858.57;107617;1257;97899;-60
2023/05/10 01:55:18;;;;;;;;;;;;;;;8.34;74.32;101854.88;107638;1256;97810;-61
2023/05/10 01:57:48;;;;;;;17.50;8.40;;;;;;;8.30;74.34;101854.57;107585;1251;111780;-61
2023/05/10 02:00:18;;;;;;;22.20;7.90;;;;;;;8.29;74.49;101859.64;107604;1251;108702;-58
2023/05/10 02:02:49;;;;;;;10.90;8.10;;;;;;;8.29;74.34;101857.54;107603;1251;106740;-59
2023/05/10 02:05:20;;;;;;;18.40;7.70;;;;;;;8.26;74.25;101856.61;107581;1257;97846;-59
2023/05/10 02:07:50;;;;;;;14.90;9.20;;;;;;;8.24;74.30;101860.66;107584;1251;98366;-60
2023/05/10 02:10:19;;;;;;;24.60;8.50;;;;;;;8.21;74.29;101857.64;107649;1254;111310;-58
2023/05/10 02:12:49;;;;;;;19.30;6.70;;;;;;;8.19;74.28;101859.40;107555;1251;109091;-61
2023/05/10 02:15:22;;;;;;;15.90;7.30;;;;;;;8.10;74.07;101858.67;107605;1251;107716;-59
2023/05/10 02:17:54;;;;;;;26.40;7.90;;;;;;;8.03;74.27;101858.00;107589;1251;97900;-59
2023/05/10 02:20:24;;;;;;;20.20;8.50;;;;;;;8.01;74.63;101857.79;107616;1251;98394;-58
2023/05/10 02:22:55;;;;;;;19.80;8.10;;;;;;;7.98;74.69;101857.58;107685;1251;111771;-60
2023/05/10 02:25:26;;;;;;;15.90;7.70;;;;;;;7.94;74.47;101857.30;107644;1254;108685;-59
2023/05/10 02:27:56;;;;;;;12.40;7.30;;;;;;;7.90;74.45;101856.32;107603;1251;107653;-60
2023/05/10 02:30:26;;;;;;;15.80;7.60;;;;;;;7.83;74.69;101855.25;107591;1250;98555;-58
2023/05/10 02:32:56;;;;;;;21.70;8.40;;;;;;;7.79;74.67;101851.92;107623;1251;97844;-60
2023/05/10 02:35:27;;;;;;;18.00;7.80;;;;;;;7.73;74.86;101846.25;107529;1251;110861;-57
2023/05/10 02:37:58;;;;;;;22.70;8.70;;;;;;;7.69;75.01;101856.29;107548;1251;110040;-60
2023/05/10 02:40:27;;;;;;;17.80;8.50;;;;;;;7.64;74.77;101853.35;107595;1251;108073;-63
2023/05/10 02:42:58;;;;;;;11.10;8.10;;;;;;;7.56;74.65;101854.70;107546;1251;97914;-59
2023/05/10 02:45:31;;;;;;;14.00;7.70;;;;;;;7.49;74.70;101856.52;107538;1251;97717;-59
2023/05/10 02:48:00;;;;;;;11.40;7.70;;;;;;;7.45;74.79;101854.80;107567;1254;111788;-59
2023/05/10 02:50:32;;;;;;;15.80;9.10;;;;;;;7.40;74.97;101856.34;107532;1254;108780;-60
2023/05/10 02:53:07;;;;;;;22.80;8.60;;;;;;;7.36;75.28;101852.63;107639;1251;108592;-61
2023/05/10 02:55:42;;;;;;;19.00;7.30;;;;;;;7.34;75.19;101854.54;107605;1251;97717;-60
2023/05/10 02:58:10;;;;;;;15.20;8.30;;;;;;;7.32;75.23;101855.73;107566;1251;97677;-59
2023/05/10 03:00:39;;;;;;;17.20;7.60;;;;;;;7.29;75.33;101855.95;107599;1254;111174;-60
2023/05/10 03:03:08;;;;;;;21.20;7.60;;;;;;;7.26;75.33;101855.52;107578;1251;110197;-59
2023/05/10 03:05:37;;;;;;;16.80;7.80;;;;;;;7.24;75.13;101860.12;107560;1250;107696;-59
2023/05/10 03:08:07;;;;;;;18.00;8.00;;;;;;;7.23;75.36;101863.91;107563;1251;97847;-59
2023/05/10 03:10:57;;;;;;;12.10;7.60;;;;;;;7.21;75.06;101864.08;107580;1254;97834;-59
2023/05/10 03:13:35;;;;;;;15.20;8.10;;;;;;;7.19;75.13;101871.84;107601;1256;111728;-60
2023/05/10 03:16:34;;;;;;;17.10;8.00;;;;;;;7.17;75.24;101869.63;107661;1251;110097;-59
2023/05/10 03:19:16;;;;;;;21.50;8.70;;;;;;;7.15;75.30;101871.53;107563;1251;107210;-58
2023/05/10 03:21:49;;;;;;;29.30;8.30;;;;;;;7.12;75.62;101872.02;107562;1251;97834;-59
2023/05/10 03:24:21;;;;;;;19.00;8.40;;;;;;;7.07;75.49;101872.31;107541;1252;97847;-59
2023/05/10 03:26:53;;;;;;;14.90;8.10;;;;;;;7.07;75.51;101870.02;107486;1257;112101;-63
2023/05/10 03:29:25;;;;;;;16.20;8.40;;;;;;;7.08;75.71;101876.21;107622;1251;109792;-59
2023/05/10 03:31:54;;;;;;;15.40;8.20;;;;;;;7.06;75.64;101870.25;107570;1251;108415;-58
2023/05/10 03:34:26;;;;;;;14.90;9.60;;;;;;;7.07;75.68;101873.23;107560;1251;98515;-59
2023/05/10 03:36:54;;;;;;;21.40;9.20;;;;;;;7.03;75.71;101874.13;107607;1256;97877;-61
2023/05/10 03:39:25;;;;;;;17.50;8.30;;;;;;;7.02;75.66;101872.77;107631;1253;111851;-59
2023/05/10 03:41:55;;;;;;;18.70;8.30;;;;;;;7.03;75.81;101871.61;107634;1253;109068;-60
2023/05/10 03:44:24;;;;;;;11.50;7.70;;;;;;;7.06;75.88;101875.56;107595;1256;107148;-59
2023/05/10 03:46:53;;;;;;;13.60;8.20;;;;;;;7.11;76.04;101877.25;107604;1251;97836;-59
2023/05/10 03:49:21;;;;;;;14.70;8.10;;;;;;;7.13;75.82;101878.19;107523;1254;99547;-59
2023/05/10 03:51:50;;;;;;;14.50;7.90;;;;;;;7.15;75.82;101877.75;107619;1254;111769;-60
2023/05/10 03:54:18;;;;;;;12.80;8.00;;;;;;;7.18;76.01;101878.63;107645;1254;109392;-59
2023/05/10 03:56:47;;;;;;;14.00;8.30;;;;;;;7.23;76.26;101879.48;107595;1254;107679;-60
2023/05/10 03:59:16;;;;;;;20.60;9.20;;;;;;;7.24;76.18;101879.42;107468;1254;97801;-58
2023/05/10 04:01:45;;;;;;;21.70;8.20;;;;;;;7.26;76.25;101878.02;107653;1255;98347;-60
2023/05/10 04:04:14;;;;;;;14.40;8.30;;;;;;;7.33;76.47;101877.08;107535;1257;111730;-58
2023/05/10 04:06:42;;;;;;;10.20;7.90;;;;;;;7.39;76.60;101878.20;107535;1251;108513;-58
2023/05/10 04:09:11;;;;;;;22.60;9.20;;;;;;;7.44;76.63;101881.27;107547;1251;107288;-60
2023/05/10 04:11:39;;;;;;;12.60;8.30;;;;;;;7.49;76.65;101882.76;107515;1251;97829;-60
2023/05/10 04:14:08;;;;;;;16.00;7.80;;;;;;;7.55;76.66;101884.98;107516;1254;97726;-60
2023/05/10 04:16:36;;;;;;;15.50;8.50;;;;;;;7.60;76.82;101885.93;107576;1251;111292;-62
2023/05/10 04:19:04;;;;;;;18.20;8.10;;;;;;;7.65;76.85;101886.30;107620;1251;110161;-62
2023/05/10 04:21:33;;;;;;;14.90;8.90;;;;;;;7.75;76.95;101885.23;107543;1250;108021;-60
2023/05/10 04:24:01;;;;;;;14.90;9.20;;;;;;;7.83;76.84;101887.40;107534;1254;97813;-62
2023/05/10 04:26:31;;;;;;;16.90;9.40;;;;;;;7.93;77.05;101883.64;107668;1253;97950;-60
2023/05/10 04:28:59;;;;;;;12.70;8.40;;;;;;;8.04;77.00;101886.00;107607;1254;111190;-61
2023/05/10 04:31:28;;;;;;;13.60;8.90;;;;;;;8.16;77.04;101887.98;107620;1254;108466;-62
2023/05/10 04:33:57;;;;;;;24.40;9.30;;;;;;;8.27;76.98;101886.41;107547;1251;107114;-58
2023/05/10 04:36:25;;;;;;;21.30;10.10;;;;;;;8.39;76.97;101889.42;107506;1251;97893;-61
2023/05/10 04:38:53;;;;;;;17.10;9.00;;;;;;;8.53;76.92;101890.42;107585;1251;97736;-60
2023/05/10 04:41:21;;;;;;;51.90;10.40;;;;;;;8.66;76.97;101892.45;107603;1251;110613;-60
2023/05/10 04:43:50;;;;;;;23.00;8.60;;;;;;;8.78;76.54;101891.34;107511;1254;109777;-59
2023/05/10 04:46:20;;;;;;;18.90;9.40;;;;;;;8.89;76.40;101892.63;107432;1251;110741;-60
2023/05/10 04:48:51;;;;;;;26.70;9.30;;;;;;;9.00;76.15;101892.11;107554;1251;98359;-63
2023/05/10 04:51:22;;;;;;;30.80;11.10;;;;;;;9.14;76.06;101894.09;107575;1251;97882;-60
2023/05/10 04:53:50;;;;;;;20.80;9.50;;;;;;;9.26;76.02;101892.23;107624;1251;112126;-60
2023/05/10 04:56:33;;;;;;;35.50;9.70;;;;;;;9.39;75.63;101893.56;107630;1251;110342;-58
2023/05/10 04:59:02;;;;;;;20.10;10.40;;;;;;;9.50;75.71;101891.20;107602;1251;108576;-59
2023/05/10 05:01:31;;;;;;;17.70;9.80;;;;;;;9.61;75.22;101894.98;107547;1252;97812;-58
2023/05/10 05:03:59;;;;;;;14.50;8.50;;;;;;;9.70;75.13;101894.39;107594;1251;97774;-59
2023/05/10 05:06:28;;;;;;;20.30;9.10;;;;;;;9.80;74.66;101893.39;107644;1251;111510;-59
2023/05/10 05:08:56;;;;;;;21.60;10.10;;;;;;;9.90;74.56;101894.83;107602;1254;108803;-59
2023/05/10 05:11:27;;;;;;;18.50;9.70;;;;;;;10.06;74.51;101889.44;107540;1251;107432;-60
2023/05/10 05:13:55;;;;;;;23.30;9.60;;;;;;;10.19;74.07;101890.02;107513;1253;97924;-59
2023/05/10 05:16:24;;;;;;;26.60;9.90;;;;;;;10.26;73.70;101888.78;107629;1254;97804;-60
2023/05/10 05:18:52;;;;;;;18.10;9.60;;;;;;;10.35;73.71;101888.90;107610;1251;111860;-60
2023/05/10 05:21:21;;;;;;;22.40;10.40;;;;;;;10.46;73.45;101886.20;107615;1254;110120;-61
2023/05/10 05:23:50;;;;;;;27.40;9.50;;;;;;;10.57;73.24;101884.90;107604;1251;107330;-60
2023/05/10 05:26:18;;;;;;;27.30;10.70;;;;;;;10.71;72.92;101880.67;107651;1251;97825;-61
2023/05/10 05:28:48;;;;;;;44.50;10.40;;;;;;;10.85;72.63;101883.59;107647;1251;98359;-60
2023/05/10 05:31:17;;;;;;;34.30;10.20;;;;;;;10.96;71.89;101882.48;107633;1253;110782;-60
2023/05/10 05:33:46;;;;;;;19.30;9.60;;;;;;;11.05;71.85;101888.14;107616;1254;109541;-60
2023/05/10 05:36:14;;;;;;;22.10;9.90;;;;;;;11.16;71.32;101886.40;107593;1251;108306;-59
2023/05/10 05:38:43;;;;;;;23.40;9.20;;;;;;;11.25;71.01;101888.09;107585;1254;97826;-60
2023/05/10 05:41:11;;;;;;;21.90;9.20;;;;;;;11.34;70.56;101886.92;107471;1254;97867;-61
2023/05/10 05:43:40;;;;;;;31.40;10.10;;;;;;;11.41;70.26;101887.30;107618;1251;111898;-61
2023/05/10 05:46:08;;;;;;;29.90;9.90;;;;;;;11.47;69.78;101882.39;107558;1251;110407;-62
2023/05/10 05:48:37;;;;;;;19.60;10.20;;;;;;;11.51;69.42;101883.63;107490;1254;107432;-61
2023/05/10 05:51:06;;;;;;;14.90;8.90;;;;;;;11.57;69.14;101885.73;107668;1253;97831;-65
2023/05/10 05:53:36;;;;;;;17.60;9.00;;;;;;;11.62;68.26;101886.24;107679;1251;99499;-62
2023/05/10 05:56:05;;;;;;;22.10;8.50;;;;;;;11.67;67.72;101886.24;107629;1251;112243;-61
2023/05/10 05:58:33;;;;;;;17.90;8.50;;;;;;;11.67;67.09;101887.30;107460;1254;109399;-61
2023/05/10 06:01:01;;;;;;;17.00;8.70;;;;;;;11.69;66.51;101882.90;107622;1251;108092;-61
2023/05/10 06:03:30;;;;;;;27.20;10.10;;;;;;;11.71;66.25;101883.73;107584;1251;97827;-60
2023/05/10 06:05:59;;;;;;;25.60;13.60;;;;;;;11.78;66.43;101890.43;107551;1251;97751;-61
2023/05/10 06:08:27;;;;;;;26.20;14.40;;;;;;;11.89;65.54;101890.14;107479;1254;112060;-63
2023/05/10 06:10:55;;;;;;;24.30;11.20;;;;;;;11.95;64.95;101888.48;107587;1251;109612;-60
2023/05/10 06:13:24;;;;;;;17.70;8.60;;;;;;;12.02;64.90;101884.17;107496;1251;108150;-59
2023/05/10 06:15:53;;;;;;;13.20;7.40;;;;;;;12.09;64.77;101884.05;107650;1251;97902;-60
2023/05/10 06:18:21;;;;;;;10.00;6.90;;;;;;;12.12;64.34;101883.96;107521;1251;98852;-60
2023/05/10 06:20:50;;;;;;;14.90;6.70;;;;;;;12.15;63.96;101883.71;107567;1250;112063;-60
2023/05/10 06:23:18;;;;;;;15.50;6.30;;;;;;;12.16;63.34;101879.89;107514;1254;108731;-61
2023/05/10 06:25:46;;;;;;;14.30;5.90;;;;;;;12.19;63.15;101878.52;107671;1253;107306;-60
2023/05/10 06:28:15;;;;;;;17.10;5.80;;;;;;;12.24;62.94;101878.35;107675;1251;97833;-61
2023/05/10 06:30:43;;;;;;;12.30;6.60;;;;;;;12.26;61.84;101878.89;107518;1251;97796;-59
2023/05/10 06:33:11;;;;;;;22.10;6.40;;;;;;;12.27;62.02;101875.61;107527;1251;111389;-61
2023/05/10 06:35:39;;;;;;;16.20;5.40;;;;;;;12.28;61.78;101875.33;107634;1253;109813;-60
2023/05/10 06:38:08;;;;;;;21.00;6.30;;;;;;;12.29;61.31;101876.32;107607;1254;107308;-62
2023/05/10 06:40:41;;;;;;;12.30;6.60;;;;;;;12.28;60.21;101873.33;107528;1251;97694;-60
2023/05/10 06:43:10;;;;;;;12.40;6.30;;;;;;;12.28;59.83;101875.33;107569;1251;97825;-60
2023/05/10 06:45:38;;;;;;;9.40;5.10;;;;;;;12.31;59.69;101872.77;107531;1250;110969;-58
2023/05/10 06:48:07;;;;;;;8.50;5.10;;;;;;;12.35;59.33;101873.34;107621;1251;110345;-59
2023/05/10 06:50:36;;;;;;;13.60;4.40;;;;;;;12.40;58.83;101872.63;107522;1251;109057;-61
2023/05/10 06:53:04;;;;;;;13.20;5.40;;;;;;;12.46;57.48;101873.75;107547;1251;97828;-58
2023/05/10 06:55:35;;;;;;;23.70;4.20;;;;;;;12.53;56.17;101873.58;107572;1250;97684;-61
2023/05/10 06:58:03;;;;;;;12.20;4.30;;;;;;;12.60;56.16;101874.27;107544;1251;112477;-59
2023/05/10 07:00:32;;;;;;;15.10;3.90;;;;;;;12.67;55.62;101874.41;107515;1251;109750;-61
2023/05/10 07:03:00;;;;;;;7.30;3.60;;;;;;;12.74;54.38;101875.89;107506;1251;109278;-62
2023/05/10 07:05:29;;;;;;;16.10;3.90;;;;;;;12.78;54.16;101875.00;107555;1251;97855;-61
2023/05/10 07:07:57;;;;;;;11.20;4.20;;;;;;;12.81;54.60;101874.89;107563;1253;97825;-59
2023/05/10 07:10:26;;;;;;;10.10;3.90;;;;;;;12.87;53.40;101878.45;107560;1254;111341;-59
2023/05/10 07:12:54;;;;;;;7.50;3.00;;;;;;;12.91;53.97;101876.11;107587;1254;110046;-59
2023/05/10 07:15:23;;;;;;;9.10;3.60;;;;;;;12.97;54.02;101878.33;107614;1254;108079;-61
2023/05/10 07:17:51;;;;;;;8.40;3.90;;;;;;;13.06;53.17;101881.77;107605;1253;97797;-60
2023/05/10 07:20:20;;;;;;;12.30;3.50;;;;;;;13.12;52.23;101878.73;107627;1253;98436;-58
2023/05/10 07:22:48;;;;;;;9.00;3.00;;;;;;;13.18;51.95;101879.00;107656;1250;111863;-60
2023/05/10 07:25:17;;;;;;;8.00;2.70;;;;;;;13.24;50.74;101873.99;107603;1250;109683;-60
2023/05/10 07:27:48;;;;;;;8.20;2.80;;;;;;;13.28;48.96;101873.63;107571;1253;108312;-59
2023/05/10 07:30:16;;;;;;;17.90;3.00;;;;;;;13.34;49.08;101874.27;107509;1251;97835;-59
2023/05/10 07:32:45;;;;;;;13.90;3.20;;;;;;;13.39;48.96;101875.29;107508;1251;97858;-58
2023/05/10 07:35:13;;;;;;;7.80;3.00;;;;;;;13.48;49.80;101872.95;107607;1251;110629;-59
2023/05/10 07:37:42;;;;;;;15.30;2.60;;;;;;;13.59;49.22;101877.58;107602;1255;110139;-59
2023/05/10 07:40:11;;;;;;;5.70;3.10;;;;;;;13.73;49.17;101873.02;107647;1253;108687;-60
2023/05/10 07:42:40;;;;;;;3.90;2.10;;;;;;;13.84;47.51;101872.09;107602;1252;97822;-60
2023/05/10 07:45:09;;;;;;;5.60;2.70;;;;;;;13.94;47.59;101873.41;107634;1254;97845;-60
2023/05/10 07:47:37;;;;;;;4.60;2.50;;;;;;;14.07;45.55;101871.79;107590;1254;110316;-60
2023/05/10 07:50:07;;;;;;;5.40;2.30;;;;;;;14.15;44.63;101875.60;107560;1251;109218;-59
2023/05/10 07:52:35;;;;;;;17.00;2.40;;;;;;;14.26;43.77;101868.35;107441;1251;107678;-61
2023/05/10 07:55:05;;;;;;;9.40;2.20;;;;;;;14.43;44.89;101870.31;107519;1251;97917;-60
2023/05/10 07:57:34;;;;;;;16.20;3.10;;;;;;;14.62;42.63;101859.45;107600;1251;97732;-62
2023/05/10 08:00:03;;;;;;;8.80;2.10;;;;;;;14.83;43.37;101863.05;106802;1254;980680;-61
2023/05/10 08:02:41;;;;;;;9.70;2.60;;;;;;;15.08;42.58;101859.86;107681;1255;110295;-61
2023/05/10 08:05:10;;;;;;;10.80;2.70;;;;;;;15.34;42.30;101862.02;107575;1251;108702;-60
2023/05/10 08:07:38;;;;;;;5.60;2.20;;;;;;;15.53;41.77;101860.63;107579;1251;97831;-60
2023/05/10 08:10:09;;;;;;;6.80;2.10;;;;;;;15.70;41.09;101862.70;107653;1253;98323;-61
2023/05/10 08:12:38;;;;;;;6.10;2.20;;;;;;;15.86;41.62;101855.48;107577;1254;111327;-61
2023/05/10 08:15:08;;;;;;;5.10;1.80;;;;;;;16.00;40.87;101855.98;107629;1251;109965;-63
2023/05/10 08:17:36;;;;;;;6.80;1.90;;;;;;;16.13;39.44;101854.62;107535;1251;107731;-60
2023/05/10 08:20:07;;;;;;;13.90;2.70;;;;;;;16.27;39.63;101855.23;107638;1251;97818;-61
2023/05/10 08:22:35;;;;;;;12.00;2.70;;;;;;;16.41;39.65;101853.74;107567;1251;97696;-61
2023/05/10 08:25:07;;;;;;;13.40;2.40;;;;;;;16.51;39.91;101852.23;107610;1253;111573;-60
2023/05/10 08:27:36;;;;;;;4.70;1.90;;;;;;;16.67;39.69;101849.45;107494;1253;109741;-60
2023/05/10 08:30:06;;;;;;;4.10;2.00;;;;;;;16.82;40.26;101853.77;107450;1254;108195;-61
2023/05/10 08:32:34;;;;;;;8.20;2.60;;;;;;;16.92;40.26;101854.08;107624;1253;97822;-60
2023/05/10 08:35:03;;;;;;;8.70;3.10;;;;;;;16.91;38.86;101852.73;107632;1253;98011;-60
2023/05/10 08:37:32;;;;;;;10.00;2.50;;;;;;;16.85;38.60;101853.42;107762;1254;112353;-60
2023/05/10 08:40:02;;;;;;;7.80;2.30;;;;;;;16.91;39.11;101847.95;107481;1254;108721;-64
2023/05/10 08:42:35;;;;;;;10.50;1.80;;;;;;;17.13;38.38;101849.63;107585;1252;108060;-60
2023/05/10 08:45:05;;;;;;;18.60;2.10;;;;;;;17.41;34.55;101846.31;107578;1251;97863;-61
2023/05/10 08:47:36;;;;;;;13.60;2.00;;;;;;;17.62;34.48;101843.10;107607;1251;97716;-60
2023/05/10 08:50:07;;;;;;;7.10;2.10;;;;;;;17.87;35.52;101844.36;107617;1253;110773;-61
2023/05/10 08:52:39;;;;;;;6.50;2.10;;;;;;;18.07;35.18;101844.36;107671;1254;108477;-59
2023/05/10 08:55:08;;;;;;;11.70;2.30;;;;;;;18.20;35.21;101847.04;107540;1254;108314;-60
2023/05/10 08:57:37;;;;;;;6.80;1.60;;;;;;;18.38;34.71;101849.56;107660;1254;97822;-62
2023/05/10 09:00:08;;;;;;;9.00;2.00;;;;;;;18.49;33.50;101850.38;107538;1251;98375;-63
2023/05/10 09:02:37;;;;;;;7.00;1.40;;;;;;;18.54;34.05;101849.79;107529;1251;110474;-63
2023/05/10 09:05:06;;;;;;;9.30;1.50;;;;;;;18.70;33.23;101848.71;107624;1250;110758;-63
2023/05/10 09:07:35;;;;;;;4.80;2.00;;;;;;;18.84;31.19;101838.48;107621;1251;108226;-60
2023/05/10 09:10:05;;;;;;;4.90;1.80;;;;;;;18.79;31.68;101840.66;107577;1251;97834;-60
2023/05/10 09:12:33;;;;;;;3.30;1.80;;;;;;;18.94;31.50;101841.96;107654;1251;97726;-60
2023/05/10 09:15:02;;;;;;;4.10;1.90;;;;;;;19.32;31.97;101842.95;107587;1250;111871;-61
2023/05/10 09:17:30;;;;;;;15.40;1.50;;;;;;;19.81;32.23;101842.80;107662;1251;108831;-62
2023/05/10 09:20:03;;;;;;;6.60;1.50;;;;;;;20.16;31.13;101837.98;107604;1251;107355;-61
2023/05/10 09:22:38;;;;;;;3.30;1.20;;;;;;;20.40;30.11;101842.16;107571;1250;97838;-65
2023/05/10 09:25:13;;;;;;;12.70;1.70;;;;;;;20.38;28.73;101841.35;107540;1254;99021;-60
2023/05/10 09:27:47;;;;;;;10.00;1.80;;;;;;;20.31;28.66;101838.95;107649;1254;112176;-61
2023/05/10 09:30:16;;;;;;;4.00;1.50;;;;;;;20.27;27.12;101839.73;107604;1253;109862;-60
2023/05/10 09:32:47;;;;;;;3.30;1.50;;;;;;;20.06;27.84;101839.44;107565;1251;111831;-61
2023/05/10 09:35:22;;;;;;;4.40;1.30;;;;;;;19.84;27.95;101839.63;107593;1254;97909;-59
2023/05/10 09:37:53;;;;;;;5.60;1.70;;;;;;;19.72;28.43;101835.34;107584;1254;97813;-62
2023/05/10 09:40:26;;;;;;;11.20;1.50;;;;;;;19.57;29.28;101831.32;107684;1253;112779;-60
2023/05/10 09:42:56;;;;;;;6.80;1.70;;;;;;;19.49;29.22;101832.61;107565;1252;108905;-60
2023/05/10 09:45:27;;;;;;;6.50;1.80;;;;;;;19.44;26.81;101832.09;107605;1251;109311;-60
2023/05/10 09:47:57;;;;;;;13.30;1.60;;;;;;;19.31;27.97;101828.70;107553;1251;97857;-62
2023/05/10 09:50:26;;;;;;;6.40;1.60;;;;;;;19.32;27.77;101825.02;107677;1250;97825;-59
2023/05/10 09:52:59;;;;;;;16.20;1.70;;;;;;;19.28;27.43;101823.27;107640;1251;110411;-60
2023/05/10 09:55:46;;;;;;;5.50;1.40;;;;;;;19.27;26.91;101825.20;107666;1251;108313;-58
2023/05/10 09:58:14;;;;;;;7.80;1.60;;;;;;;19.27;26.10;101827.53;107588;1251;107760;-60
2023/05/10 10:00:44;;;;;;;10.10;1.00;;;;;;;19.32;27.10;101826.30;107629;1251;97828;-60
2023/05/10 10:03:18;;;;;;;22.80;2.50;;;;;;;19.41;26.00;101830.17;107624;1251;98456;-60
2023/05/10 10:05:48;;;;;;;3.50;1.40;;;;;;;19.50;26.76;101822.52;107472;1254;110876;-60
2023/05/10 10:08:17;;;;;;;7.10;1.50;;;;;;;19.53;25.24;101819.00;107621;1251;110017;-61
2023/05/10 10:10:46;;;;;;;7.50;1.70;;;;;;;19.52;25.82;101819.71;107575;1251;108021;-61
2023/05/10 10:13:15;;;;;;;6.10;1.00;;;;;;;19.57;25.30;101825.21;107550;1253;98002;-62
2023/05/10 10:15:44;;;;;;;4.60;1.40;;;;;;;19.53;24.88;101823.98;107452;1254;98347;-62
2023/05/10 10:18:16;;;;;;;7.90;2.40;;;;;;;19.69;26.40;101818.04;107536;1254;111302;-61
2023/05/10 10:20:45;;;;;;;10.60;1.30;;;;;;;19.90;26.11;101822.86;107610;1253;109081;-62
2023/05/10 10:23:13;;;;;;;7.30;1.40;;;;;;;20.11;26.61;101816.48;107475;1254;109551;-63
2023/05/10 10:25:48;;;;;;;6.80;1.20;;;;;;;20.26;24.97;101817.17;107490;1251;97913;-60
2023/05/10 10:28:31;;;;;;;7.80;1.50;;;;;;;20.36;25.16;101820.08;107628;1251;97806;-62
2023/05/10 10:31:13;;;;;;;9.10;1.80;;;;;;;20.39;25.20;101820.70;107607;1250;111843;-61
2023/05/10 10:33:44;;;;;;;1.80;1.20;;;;;;;20.43;24.86;101820.13;107634;1251;109804;-63
2023/05/10 10:36:16;;;;;;;3.10;1.20;;;;;;;20.41;25.35;101817.80;107589;1251;107679;-61
2023/05/10 10:38:47;;;;;;;6.70;1.40;;;;;;;20.59;24.99;101816.30;107596;1251;97841;-61
2023/05/10 10:41:29;;;;;;;4.30;1.30;;;;;;;21.38;24.98;101809.69;107720;1251;97719;-62
2023/05/10 10:44:22;;;;;;;4.40;1.60;;;;;;;21.97;24.85;101811.15;107595;1251;111238;-64
2023/05/10 10:47:14;;;;;;;4.90;1.70;;;;;;;21.84;25.29;101811.20;107606;1251;109959;-61
2023/05/10 10:49:45;;;;;;;4.10;1.10;;;;;;;21.69;24.11;101808.27;107477;1256;108395;-64
2023/05/10 10:52:28;;;;;;;8.70;1.70;;;;;;;21.45;24.60;101805.41;107551;1254;98458;-65
2023/05/10 10:55:09;;;;;;;6.50;1.30;;;;;;;21.37;24.89;101805.45;107580;1251;97825;-62
2023/05/10 10:57:40;;;;;;;9.40;1.90;;;;;;;21.45;24.76;101803.77;107608;1251;111297;-62
2023/05/10 11:00:32;;;;;;;8.90;2.00;;;;;;;21.50;24.97;101803.20;107605;1251;109194;-61
2023/05/10 11:03:07;;;;;;;5.30;1.30;;;;;;;21.56;24.19;101803.90;107629;1251;108588;-61
2023/05/10 11:05:42;;;;;;;2.50;1.10;;;;;;;21.71;23.59;101801.64;107586;1255;97938;-61
2023/05/10 11:08:16;;;;;;;7.70;1.30;;;;;;;21.96;23.37;101796.30;107525;1254;98485;-61
2023/05/10 11:11:08;;;;;;;12.80;1.30;;;;;;;22.15;23.94;101794.35;107635;1251;111448;-63
2023/05/10 11:13:43;;;;;;;4.70;1.30;;;;;;;22.29;23.03;101793.62;107639;1251;110518;-61
2023/05/10 11:16:13;;;;;;;6.90;1.70;;;;;;;22.26;23.32;101792.40;107676;1251;107962;-61
2023/05/10 11:18:57;;;;;;;2.80;1.40;;;;;;;22.42;23.72;101792.31;107629;1250;97934;-60
2023/05/10 11:21:28;;;;;;;8.30;1.90;;;;;;;22.56;23.53;101793.34;107609;1251;97822;-62
2023/05/10 11:23:59;;;;;;;5.00;1.70;;;;;;;22.81;22.88;101792.56;107559;1254;111264;-62
2023/05/10 11:26:33;;;;;;;3.60;1.40;;;;;;;22.86;21.86;101790.20;107589;1251;108843;-62
2023/05/10 11:29:04;;;;;;;12.20;1.60;;;;;;;22.80;21.81;101786.84;107560;1251;108140;-63
2023/05/10 11:31:35;;;;;;;8.10;1.40;;;;;;;22.64;21.97;101791.25;107511;1254;97697;-62